sensor_id;sensor_type;location;lat;lon;timestamp;pressure;altitude;pressure_sealevel;temperature;humidity
71907;BME280;59781;52.090;5.030;2023-09-18T00:00:25;100600.72;;;20.03;100.00
71907;BME280;59781;52.090;5.030;2023-09-18T00:02:51;100595.38;;;19.62;100.00
71907;BME280;59781;52.090;5.030;2023-09-18T00:05:17;100585.19;;;19.69;100.00
71907;BME280;59781;52.090;5.030;2023-09-18T00:07:43;100586.84;;;19.70;100.00
71907;BME280;59781;52.090;5.030;2023-09-18T00:10:10;100584.13;;;19.70;100.00
71907;BME280;59781;52.090;5.030;2023-09-18T00:12:37;100574.72;;;19.89;100.00
71907;BME280;59781;52.090;5.030;2023-09-18T00:15:04;100576.03;;;19.75;100.00
71907;BME280;59781;52.090;5.030;2023-09-18T00:17:30;100564.97;;;19.82;100.00
71907;BME280;59781;52.090;5.030;2023-09-18T00:19:57;100566.88;;;19.81;100.00
71907;BME280;59781;52.090;5.030;2023-09-18T00:22:23;100567.91;;;19.45;100.00
71907;BME280;59781;52.090;5.030;2023-09-18T00:24:50;100557.34;;;19.48;100.00
71907;BME280;59781;52.090;5.030;2023-09-18T00:27:15;100563.91;;;19.59;100.00
71907;BME280;59781;52.090;5.030;2023-09-18T00:29:42;100558.06;;;19.56;100.00
71907;BME280;59781;52.090;5.030;2023-09-18T00:32:08;100536.31;;;19.96;100.00
71907;BME280;59781;52.090;5.030;2023-09-18T00:34:34;100533.72;;;19.89;100.00
71907;BME280;59781;52.090;5.030;2023-09-18T00:37:00;100530.66;;;19.62;100.00
71907;BME280;59781;52.090;5.030;2023-09-18T00:39:26;100536.84;;;19.58;100.00
71907;BME280;59781;52.090;5.030;2023-09-18T00:41:52;100534.66;;;19.83;100.00
71907;BME280;59781;52.090;5.030;2023-09-18T00:44:22;100525.53;;;19.77;100.00
71907;BME280;59781;52.090;5.030;2023-09-18T00:46:51;100513.16;;;19.98;100.00
71907;BME280;59781;52.090;5.030;2023-09-18T00:49:18;100513.06;;;19.70;100.00
71907;BME280;59781;52.090;5.030;2023-09-18T00:51:45;100506.91;;;19.63;100.00
71907;BME280;59781;52.090;5.030;2023-09-18T00:54:16;100483.78;;;19.94;100.00
71907;BME280;59781;52.090;5.030;2023-09-18T00:56:47;100477.50;;;19.93;100.00
71907;BME280;59781;52.090;5.030;2023-09-18T00:59:14;100480.88;;;19.72;100.00
71907;BME280;59781;52.090;5.030;2023-09-18T01:01:40;100476.81;;;19.86;100.00
71907;BME280;59781;52.090;5.030;2023-09-18T01:04:07;100469.94;;;19.48;100.00
71907;BME280;59781;52.090;5.030;2023-09-18T01:06:33;100451.84;;;19.83;100.00
71907;BME280;59781;52.090;5.030;2023-09-18T01:08:59;100446.78;;;19.63;100.00
71907;BME280;59781;52.090;5.030;2023-09-18T01:11:47;100450.59;;;19.62;100.00
71907;BME280;59781;52.090;5.030;2023-09-18T01:17:22;100427.13;;;19.89;100.00
71907;BME280;59781;52.090;5.030;2023-09-18T01:19:48;100428.78;;;19.90;100.00
71907;BME280;59781;52.090;5.030;2023-09-18T01:22:15;100421.31;;;19.86;100.00
71907;BME280;59781;52.090;5.030;2023-09-18T01:24:45;100417.06;;;19.78;100.00
71907;BME280;59781;52.090;5.030;2023-09-18T01:27:16;100412.19;;;19.80;100.00
71907;BME280;59781;52.090;5.030;2023-09-18T01:29:44;100410.38;;;19.86;100.00
71907;BME280;59781;52.090;5.030;2023-09-18T01:32:11;100412.53;;;19.84;100.00
71907;BME280;59781;52.090;5.030;2023-09-18T01:34:46;100424.22;;;20.08;100.00
71907;BME280;59781;52.090;5.030;2023-09-18T01:37:17;100431.72;;;20.00;100.00
71907;BME280;59781;52.090;5.030;2023-09-18T01:39:49;100416.72;;;20.03;100.00
71907;BME280;59781;52.090;5.030;2023-09-18T01:42:16;100413.47;;;20.18;100.00
71907;BME280;59781;52.090;5.030;2023-09-18T01:44:44;100403.25;;;19.85;100.00
71907;BME280;59781;52.090;5.030;2023-09-18T01:47:14;100403.41;;;19.55;100.00
71907;BME280;59781;52.090;5.030;2023-09-18T01:49:43;100404.94;;;19.74;100.00
71907;BME280;59781;52.090;5.030;2023-09-18T01:52:09;100389.97;;;20.05;100.00
71907;BME280;59781;52.090;5.030;2023-09-18T01:54:35;100396.28;;;20.05;100.00
71907;BME280;59781;52.090;5.030;2023-09-18T01:57:02;100394.53;;;19.99;100.00
71907;BME280;59781;52.090;5.030;2023-09-18T01:59:29;100394.34;;;19.89;100.00
71907;BME280;59781;52.090;5.030;2023-09-18T02:01:56;100399.22;;;19.87;100.00
71907;BME280;59781;52.090;5.030;2023-09-18T02:04:22;100412.63;;;19.89;100.00
71907;BME280;59781;52.090;5.030;2023-09-18T02:06:49;100422.59;;;19.95;100.00
71907;BME280;59781;52.090;5.030;2023-09-18T02:09:17;100416.34;;;20.11;100.00
71907;BME280;59781;52.090;5.030;2023-09-18T02:11:45;100424.81;;;20.10;100.00
71907;BME280;59781;52.090;5.030;2023-09-18T02:14:12;100419.97;;;20.00;100.00
71907;BME280;59781;52.090;5.030;2023-09-18T02:16:41;100417.94;;;19.95;100.00
71907;BME280;59781;52.090;5.030;2023-09-18T02:19:12;100426.34;;;19.77;100.00
71907;BME280;59781;52.090;5.030;2023-09-18T02:21:39;100421.03;;;19.99;100.00
71907;BME280;59781;52.090;5.030;2023-09-18T02:24:06;100418.69;;;19.91;100.00
71907;BME280;59781;52.090;5.030;2023-09-18T02:26:32;100420.16;;;20.10;100.00
71907;BME280;59781;52.090;5.030;2023-09-18T02:29:01;100404.00;;;20.09;100.00
71907;BME280;59781;52.090;5.030;2023-09-18T02:31:29;100395.69;;;20.03;100.00
71907;BME280;59781;52.090;5.030;2023-09-18T02:33:55;100394.63;;;20.04;100.00
71907;BME280;59781;52.090;5.030;2023-09-18T02:36:21;100392.50;;;19.95;100.00
71907;BME280;59781;52.090;5.030;2023-09-18T02:38:48;100402.16;;;19.97;100.00
71907;BME280;59781;52.090;5.030;2023-09-18T02:41:14;100394.81;;;20.15;100.00
71907;BME280;59781;52.090;5.030;2023-09-18T02:43:39;100389.97;;;20.05;100.00
71907;BME280;59781;52.090;5.030;2023-09-18T02:46:06;100372.22;;;19.91;100.00
71907;BME280;59781;52.090;5.030;2023-09-18T02:48:34;100367.53;;;19.74;100.00
71907;BME280;59781;52.090;5.030;2023-09-18T02:51:00;100352.25;;;19.90;100.00
71907;BME280;59781;52.090;5.030;2023-09-18T02:53:27;100337.88;;;20.12;100.00
71907;BME280;59781;52.090;5.030;2023-09-18T02:55:56;100322.88;;;20.14;100.00
71907;BME280;59781;52.090;5.030;2023-09-18T02:58:24;100318.09;;;19.76;100.00
71907;BME280;59781;52.090;5.030;2023-09-18T03:00:57;100313.69;;;19.75;100.00
71907;BME280;59781;52.090;5.030;2023-09-18T03:03:24;100304.66;;;19.86;100.00
71907;BME280;59781;52.090;5.030;2023-09-18T03:05:51;100289.34;;;20.02;100.00
71907;BME280;59781;52.090;5.030;2023-09-18T03:08:17;100291.19;;;19.85;100.00
71907;BME280;59781;52.090;5.030;2023-09-18T03:10:44;100282.66;;;20.26;100.00
71907;BME280;59781;52.090;5.030;2023-09-18T03:13:13;100291.00;;;20.20;100.00
71907;BME280;59781;52.090;5.030;2023-09-18T03:15:40;100287.44;;;20.19;100.00
71907;BME280;59781;52.090;5.030;2023-09-18T03:18:06;100286.69;;;20.07;100.00
71907;BME280;59781;52.090;5.030;2023-09-18T03:20:34;100275.09;;;20.33;100.00
71907;BME280;59781;52.090;5.030;2023-09-18T03:23:01;100274.84;;;20.18;100.00
71907;BME280;59781;52.090;5.030;2023-09-18T03:25:28;100277.19;;;20.26;100.00
71907;BME280;59781;52.090;5.030;2023-09-18T03:27:56;100282.72;;;20.15;100.00
71907;BME280;59781;52.090;5.030;2023-09-18T03:30:27;100298.69;;;19.61;100.00
71907;BME280;59781;52.090;5.030;2023-09-18T03:32:52;100302.25;;;19.90;100.00
71907;BME280;59781;52.090;5.030;2023-09-18T03:35:20;100307.38;;;19.58;100.00
71907;BME280;59781;52.090;5.030;2023-09-18T03:37:49;100307.41;;;19.74;100.00
71907;BME280;59781;52.090;5.030;2023-09-18T03:40:17;100297.72;;;19.67;100.00
71907;BME280;59781;52.090;5.030;2023-09-18T03:42:44;100300.78;;;19.99;100.00
71907;BME280;59781;52.090;5.030;2023-09-18T03:45:11;100299.78;;;19.60;100.00
71907;BME280;59781;52.090;5.030;2023-09-18T03:47:38;100315.72;;;19.80;100.00
71907;BME280;59781;52.090;5.030;2023-09-18T03:50:06;100321.88;;;19.58;100.00
71907;BME280;59781;52.090;5.030;2023-09-18T03:52:37;100326.34;;;19.64;100.00
71907;BME280;59781;52.090;5.030;2023-09-18T03:55:04;100309.25;;;19.86;100.00
71907;BME280;59781;52.090;5.030;2023-09-18T03:57:31;100316.50;;;19.52;100.00
71907;BME280;59781;52.090;5.030;2023-09-18T03:59:57;100320.28;;;19.22;100.00
71907;BME280;59781;52.090;5.030;2023-09-18T04:02:24;100337.47;;;19.23;100.00
71907;BME280;59781;52.090;5.030;2023-09-18T04:04:53;100335.44;;;19.30;100.00
71907;BME280;59781;52.090;5.030;2023-09-18T04:07:19;100353.16;;;19.27;100.00
71907;BME280;59781;52.090;5.030;2023-09-18T04:09:46;100381.19;;;19.11;100.00
71907;BME280;59781;52.090;5.030;2023-09-18T04:12:12;100297.13;;;17.59;100.00
71907;BME280;59781;52.090;5.030;2023-09-18T04:14:38;100265.75;;;17.57;100.00
71907;BME280;59781;52.090;5.030;2023-09-18T04:17:04;100276.16;;;17.78;100.00
71907;BME280;59781;52.090;5.030;2023-09-18T04:19:30;100307.13;;;17.95;100.00
71907;BME280;59781;52.090;5.030;2023-09-18T04:21:56;100316.81;;;18.21;100.00
71907;BME280;59781;52.090;5.030;2023-09-18T04:24:22;100298.09;;;18.37;100.00
71907;BME280;59781;52.090;5.030;2023-09-18T04:26:49;100309.03;;;18.60;100.00
71907;BME280;59781;52.090;5.030;2023-09-18T04:29:19;100305.16;;;18.79;100.00
71907;BME280;59781;52.090;5.030;2023-09-18T04:31:47;100283.53;;;18.78;100.00
71907;BME280;59781;52.090;5.030;2023-09-18T04:34:14;100281.88;;;18.77;100.00
71907;BME280;59781;52.090;5.030;2023-09-18T04:36:39;100265.88;;;18.80;100.00
71907;BME280;59781;52.090;5.030;2023-09-18T04:39:06;100248.72;;;18.68;100.00
71907;BME280;59781;52.090;5.030;2023-09-18T04:41:33;100249.72;;;18.90;100.00
71907;BME280;59781;52.090;5.030;2023-09-18T04:44:00;100249.16;;;18.65;100.00
71907;BME280;59781;52.090;5.030;2023-09-18T04:46:26;100239.88;;;18.78;100.00
71907;BME280;59781;52.090;5.030;2023-09-18T04:48:52;100236.09;;;18.90;100.00
71907;BME280;59781;52.090;5.030;2023-09-18T04:51:17;100233.00;;;18.63;100.00
71907;BME280;59781;52.090;5.030;2023-09-18T04:53:43;100216.81;;;18.69;100.00
71907;BME280;59781;52.090;5.030;2023-09-18T04:56:09;100217.38;;;18.59;100.00
71907;BME280;59781;52.090;5.030;2023-09-18T04:58:36;100208.25;;;18.65;100.00
71907;BME280;59781;52.090;5.030;2023-09-18T05:01:05;100214.16;;;18.62;100.00
71907;BME280;59781;52.090;5.030;2023-09-18T05:03:36;100221.28;;;18.63;100.00
71907;BME280;59781;52.090;5.030;2023-09-18T05:06:02;100216.91;;;18.74;100.00
71907;BME280;59781;52.090;5.030;2023-09-18T05:08:29;100227.34;;;18.65;100.00
71907;BME280;59781;52.090;5.030;2023-09-18T05:10:55;100242.25;;;18.86;100.00
71907;BME280;59781;52.090;5.030;2023-09-18T05:13:21;100239.75;;;18.84;100.00
71907;BME280;59781;52.090;5.030;2023-09-18T05:15:46;100237.88;;;18.61;100.00
71907;BME280;59781;52.090;5.030;2023-09-18T05:18:12;100247.31;;;19.06;100.00
71907;BME280;59781;52.090;5.030;2023-09-18T05:20:39;100252.78;;;18.94;100.00
71907;BME280;59781;52.090;5.030;2023-09-18T05:23:05;100263.69;;;19.06;100.00
71907;BME280;59781;52.090;5.030;2023-09-18T05:25:31;100256.97;;;18.85;100.00
71907;BME280;59781;52.090;5.030;2023-09-18T05:27:59;100261.72;;;18.89;100.00
71907;BME280;59781;52.090;5.030;2023-09-18T05:30:31;100259.84;;;18.78;100.00
71907;BME280;59781;52.090;5.030;2023-09-18T05:33:01;100273.09;;;18.98;100.00
71907;BME280;59781;52.090;5.030;2023-09-18T05:35:40;100275.78;;;19.10;100.00
71907;BME280;59781;52.090;5.030;2023-09-18T05:38:11;100272.59;;;19.01;100.00
71907;BME280;59781;52.090;5.030;2023-09-18T05:40:39;100275.13;;;18.91;100.00
71907;BME280;59781;52.090;5.030;2023-09-18T05:43:05;100281.06;;;18.76;100.00
71907;BME280;59781;52.090;5.030;2023-09-18T05:45:32;100279.38;;;18.87;100.00
71907;BME280;59781;52.090;5.030;2023-09-18T05:47:59;100277.72;;;18.98;100.00
71907;BME280;59781;52.090;5.030;2023-09-18T05:50:32;100273.34;;;18.85;100.00
71907;BME280;59781;52.090;5.030;2023-09-18T05:53:01;100280.31;;;19.04;100.00
71907;BME280;59781;52.090;5.030;2023-09-18T05:55:33;100263.00;;;18.99;100.00
71907;BME280;59781;52.090;5.030;2023-09-18T05:57:59;100249.56;;;19.09;100.00
71907;BME280;59781;52.090;5.030;2023-09-18T06:00:26;100260.69;;;19.19;100.00
71907;BME280;59781;52.090;5.030;2023-09-18T06:02:53;100265.28;;;19.30;100.00
71907;BME280;59781;52.090;5.030;2023-09-18T06:05:18;100267.81;;;19.20;100.00
71907;BME280;59781;52.090;5.030;2023-09-18T06:07:51;100261.31;;;19.09;100.00
71907;BME280;59781;52.090;5.030;2023-09-18T06:10:17;100268.47;;;18.87;100.00
71907;BME280;59781;52.090;5.030;2023-09-18T06:12:44;100262.84;;;19.05;100.00
71907;BME280;59781;52.090;5.030;2023-09-18T06:15:11;100276.03;;;18.97;100.00
71907;BME280;59781;52.090;5.030;2023-09-18T06:17:42;100294.53;;;19.18;100.00
71907;BME280;59781;52.090;5.030;2023-09-18T06:20:10;100289.25;;;18.88;100.00
71907;BME280;59781;52.090;5.030;2023-09-18T06:22:38;100278.19;;;18.95;100.00
71907;BME280;59781;52.090;5.030;2023-09-18T06:25:06;100275.59;;;18.88;100.00
71907;BME280;59781;52.090;5.030;2023-09-18T06:27:36;100274.28;;;18.90;100.00
71907;BME280;59781;52.090;5.030;2023-09-18T06:30:06;100272.94;;;19.05;100.00
71907;BME280;59781;52.090;5.030;2023-09-18T06:32:32;100285.66;;;18.99;100.00
71907;BME280;59781;52.090;5.030;2023-09-18T06:34:58;100264.97;;;19.15;100.00
71907;BME280;59781;52.090;5.030;2023-09-18T06:37:25;100264.91;;;18.98;100.00
71907;BME280;59781;52.090;5.030;2023-09-18T06:39:53;100283.28;;;19.03;100.00
71907;BME280;59781;52.090;5.030;2023-09-18T06:42:19;100266.56;;;18.99;100.00
71907;BME280;59781;52.090;5.030;2023-09-18T06:44:52;100257.97;;;19.07;100.00
71907;BME280;59781;52.090;5.030;2023-09-18T06:47:18;100259.75;;;19.13;100.00
71907;BME280;59781;52.090;5.030;2023-09-18T06:49:44;100259.53;;;19.03;100.00
71907;BME280;59781;52.090;5.030;2023-09-18T06:52:09;100267.25;;;18.95;100.00
71907;BME280;59781;52.090;5.030;2023-09-18T06:54:35;100266.88;;;19.14;100.00
71907;BME280;59781;52.090;5.030;2023-09-18T06:57:01;100275.22;;;19.08;100.00
71907;BME280;59781;52.090;5.030;2023-09-18T06:59:28;100273.47;;;18.90;100.00
71907;BME280;59781;52.090;5.030;2023-09-18T07:01:55;100279.69;;;19.14;100.00
71907;BME280;59781;52.090;5.030;2023-09-18T07:04:21;100281.75;;;19.35;100.00
71907;BME280;59781;52.090;5.030;2023-09-18T07:06:47;100275.84;;;19.27;100.00
71907;BME280;59781;52.090;5.030;2023-09-18T07:09:12;100281.72;;;19.18;100.00
71907;BME280;59781;52.090;5.030;2023-09-18T07:11:39;100265.94;;;18.97;100.00
71907;BME280;59781;52.090;5.030;2023-09-18T07:14:04;100266.22;;;18.84;100.00
71907;BME280;59781;52.090;5.030;2023-09-18T07:16:32;100268.22;;;19.00;100.00
71907;BME280;59781;52.090;5.030;2023-09-18T07:18:58;100266.44;;;18.94;100.00
71907;BME280;59781;52.090;5.030;2023-09-18T07:21:24;100263.81;;;19.11;100.00
71907;BME280;59781;52.090;5.030;2023-09-18T07:23:49;100263.97;;;19.33;100.00
71907;BME280;59781;52.090;5.030;2023-09-18T07:26:15;100264.94;;;19.55;100.00
71907;BME280;59781;52.090;5.030;2023-09-18T07:28:41;100260.44;;;19.20;100.00
71907;BME280;59781;52.090;5.030;2023-09-18T07:31:10;100249.03;;;19.24;100.00
71907;BME280;59781;52.090;5.030;2023-09-18T07:33:37;100242.81;;;19.40;100.00
71907;BME280;59781;52.090;5.030;2023-09-18T07:36:03;100224.81;;;19.56;100.00
71907;BME280;59781;52.090;5.030;2023-09-18T07:38:29;100226.25;;;19.46;100.00
71907;BME280;59781;52.090;5.030;2023-09-18T07:40:56;100243.09;;;19.55;100.00
71907;BME280;59781;52.090;5.030;2023-09-18T07:43:23;100252.00;;;19.62;100.00
71907;BME280;59781;52.090;5.030;2023-09-18T07:45:50;100259.91;;;19.47;100.00
71907;BME280;59781;52.090;5.030;2023-09-18T07:48:16;100265.28;;;19.70;100.00
71907;BME280;59781;52.090;5.030;2023-09-18T07:50:45;100252.59;;;19.24;100.00
71907;BME280;59781;52.090;5.030;2023-09-18T07:53:11;100260.06;;;19.29;100.00
71907;BME280;59781;52.090;5.030;2023-09-18T07:55:37;100270.56;;;19.48;100.00
71907;BME280;59781;52.090;5.030;2023-09-18T07:58:03;100266.50;;;19.51;100.00
71907;BME280;59781;52.090;5.030;2023-09-18T08:00:30;100276.13;;;19.54;100.00
71907;BME280;59781;52.090;5.030;2023-09-18T08:02:55;100281.81;;;19.64;100.00
71907;BME280;59781;52.090;5.030;2023-09-18T08:05:27;100275.09;;;19.43;100.00
71907;BME280;59781;52.090;5.030;2023-09-18T08:07:54;100286.16;;;19.36;100.00
71907;BME280;59781;52.090;5.030;2023-09-18T08:10:25;100286.31;;;19.30;100.00
71907;BME280;59781;52.090;5.030;2023-09-18T08:12:51;100290.44;;;19.72;100.00
71907;BME280;59781;52.090;5.030;2023-09-18T08:15:21;100270.50;;;19.72;100.00
71907;BME280;59781;52.090;5.030;2023-09-18T08:17:47;100285.22;;;19.71;100.00
71907;BME280;59781;52.090;5.030;2023-09-18T08:20:17;100294.84;;;20.36;100.00
71907;BME280;59781;52.090;5.030;2023-09-18T08:22:44;100279.69;;;20.83;100.00
71907;BME280;59781;52.090;5.030;2023-09-18T08:25:11;100262.63;;;21.15;100.00
71907;BME280;59781;52.090;5.030;2023-09-18T08:27:38;100246.09;;;21.81;100.00
71907;BME280;59781;52.090;5.030;2023-09-18T08:30:07;100252.84;;;22.00;100.00
71907;BME280;59781;52.090;5.030;2023-09-18T08:32:36;100251.75;;;22.70;100.00
71907;BME280;59781;52.090;5.030;2023-09-18T08:35:02;100258.94;;;22.76;100.00
71907;BME280;59781;52.090;5.030;2023-09-18T08:37:28;100258.47;;;22.47;100.00
71907;BME280;59781;52.090;5.030;2023-09-18T08:39:53;100258.19;;;22.49;100.00
71907;BME280;59781;52.090;5.030;2023-09-18T08:42:21;100274.41;;;22.13;100.00
71907;BME280;59781;52.090;5.030;2023-09-18T08:44:51;100260.28;;;22.74;100.00
71907;BME280;59781;52.090;5.030;2023-09-18T08:47:18;100255.72;;;22.47;100.00
71907;BME280;59781;52.090;5.030;2023-09-18T08:49:49;100262.91;;;21.89;100.00
71907;BME280;59781;52.090;5.030;2023-09-18T08:52:16;100253.97;;;22.73;100.00
71907;BME280;59781;52.090;5.030;2023-09-18T08:54:43;100258.31;;;23.11;100.00
71907;BME280;59781;52.090;5.030;2023-09-18T08:57:09;100255.75;;;23.62;100.00
71907;BME280;59781;52.090;5.030;2023-09-18T08:59:39;100255.00;;;23.09;100.00
71907;BME280;59781;52.090;5.030;2023-09-18T09:02:06;100265.19;;;23.19;100.00
71907;BME280;59781;52.090;5.030;2023-09-18T09:04:35;100278.91;;;22.29;100.00
71907;BME280;59781;52.090;5.030;2023-09-18T09:07:02;100292.81;;;21.42;100.00
71907;BME280;59781;52.090;5.030;2023-09-18T09:09:28;100305.22;;;21.06;100.00
71907;BME280;59781;52.090;5.030;2023-09-18T09:11:56;100318.78;;;21.17;100.00
71907;BME280;59781;52.090;5.030;2023-09-18T09:14:22;100311.00;;;20.71;100.00
71907;BME280;59781;52.090;5.030;2023-09-18T09:16:54;100312.47;;;20.95;100.00
71907;BME280;59781;52.090;5.030;2023-09-18T09:19:34;100323.00;;;20.86;100.00
71907;BME280;59781;52.090;5.030;2023-09-18T09:22:04;100317.22;;;20.66;100.00
71907;BME280;59781;52.090;5.030;2023-09-18T09:24:42;100319.47;;;20.52;100.00
71907;BME280;59781;52.090;5.030;2023-09-18T09:27:09;100326.94;;;20.57;100.00
71907;BME280;59781;52.090;5.030;2023-09-18T09:29:36;100320.53;;;20.85;100.00
71907;BME280;59781;52.090;5.030;2023-09-18T09:32:13;100323.91;;;20.92;100.00
71907;BME280;59781;52.090;5.030;2023-09-18T09:34:41;100328.19;;;20.49;100.00
71907;BME280;59781;52.090;5.030;2023-09-18T09:37:07;100330.66;;;20.51;100.00
71907;BME280;59781;52.090;5.030;2023-09-18T09:39:33;100325.00;;;20.41;100.00
71907;BME280;59781;52.090;5.030;2023-09-18T09:42:00;100339.50;;;20.41;100.00
71907;BME280;59781;52.090;5.030;2023-09-18T09:44:31;100336.91;;;20.18;100.00
71907;BME280;59781;52.090;5.030;2023-09-18T09:46:59;100358.28;;;20.21;100.00
71907;BME280;59781;52.090;5.030;2023-09-18T09:49:25;100349.41;;;20.14;100.00
71907;BME280;59781;52.090;5.030;2023-09-18T09:51:53;100359.75;;;20.12;100.00
71907;BME280;59781;52.090;5.030;2023-09-18T09:54:32;100359.69;;;20.23;100.00
71907;BME280;59781;52.090;5.030;2023-09-18T09:57:04;100364.72;;;20.15;100.00
71907;BME280;59781;52.090;5.030;2023-09-18T09:59:30;100361.19;;;20.31;100.00
71907;BME280;59781;52.090;5.030;2023-09-18T10:01:59;100342.84;;;20.43;100.00
71907;BME280;59781;52.090;5.030;2023-09-18T10:04:28;100336.31;;;21.00;100.00
71907;BME280;59781;52.090;5.030;2023-09-18T10:07:06;100338.56;;;21.03;100.00
71907;BME280;59781;52.090;5.030;2023-09-18T10:09:35;100342.38;;;21.02;100.00
71907;BME280;59781;52.090;5.030;2023-09-18T10:12:12;100340.88;;;20.94;100.00
71907;BME280;59781;52.090;5.030;2023-09-18T10:14:47;100347.84;;;21.02;100.00
71907;BME280;59781;52.090;5.030;2023-09-18T10:17:18;100344.09;;;20.69;100.00
71907;BME280;59781;52.090;5.030;2023-09-18T10:19:54;100346.31;;;20.89;100.00
71907;BME280;59781;52.090;5.030;2023-09-18T10:22:45;100342.59;;;20.45;100.00
71907;BME280;59781;52.090;5.030;2023-09-18T10:25:23;100349.88;;;20.89;100.00
71907;BME280;59781;52.090;5.030;2023-09-18T10:27:55;100342.75;;;20.55;100.00
71907;BME280;59781;52.090;5.030;2023-09-18T10:30:27;100338.16;;;21.33;100.00
71907;BME280;59781;52.090;5.030;2023-09-18T10:32:56;100325.09;;;21.84;100.00
71907;BME280;59781;52.090;5.030;2023-09-18T10:35:24;100329.63;;;22.00;100.00
71907;BME280;59781;52.090;5.030;2023-09-18T10:37:54;100311.44;;;23.32;100.00
71907;BME280;59781;52.090;5.030;2023-09-18T10:40:20;100323.38;;;22.64;100.00
71907;BME280;59781;52.090;5.030;2023-09-18T10:42:50;100325.34;;;22.09;100.00
71907;BME280;59781;52.090;5.030;2023-09-18T10:45:17;100337.72;;;22.12;100.00
71907;BME280;59781;52.090;5.030;2023-09-18T10:47:46;100319.66;;;22.48;100.00
71907;BME280;59781;52.090;5.030;2023-09-18T10:50:26;100321.38;;;22.59;100.00
71907;BME280;59781;52.090;5.030;2023-09-18T10:52:52;100309.84;;;22.52;100.00
71907;BME280;59781;52.090;5.030;2023-09-18T10:55:21;100304.09;;;23.53;100.00
71907;BME280;59781;52.090;5.030;2023-09-18T10:57:53;100308.88;;;23.83;100.00
71907;BME280;59781;52.090;5.030;2023-09-18T11:00:21;100311.69;;;24.19;100.00
71907;BME280;59781;52.090;5.030;2023-09-18T11:02:56;100321.69;;;23.00;100.00
71907;BME280;59781;52.090;5.030;2023-09-18T11:05:35;100321.13;;;22.23;100.00
71907;BME280;59781;52.090;5.030;2023-09-18T11:08:43;100319.16;;;21.70;100.00
71907;BME280;59781;52.090;5.030;2023-09-18T11:11:12;100310.97;;;21.26;100.00
71907;BME280;59781;52.090;5.030;2023-09-18T11:16:18;100312.41;;;21.12;100.00
71907;BME280;59781;52.090;5.030;2023-09-18T11:21:31;100307.81;;;21.83;100.00
71907;BME280;59781;52.090;5.030;2023-09-18T11:24:03;100313.41;;;21.93;100.00
71907;BME280;59781;52.090;5.030;2023-09-18T11:26:41;100295.00;;;23.53;100.00
71907;BME280;59781;52.090;5.030;2023-09-18T11:29:10;100290.44;;;23.73;100.00
71907;BME280;59781;52.090;5.030;2023-09-18T11:31:45;100292.16;;;24.30;100.00
71907;BME280;59781;52.090;5.030;2023-09-18T11:37:21;100318.41;;;21.74;100.00
71907;BME280;59781;52.090;5.030;2023-09-18T11:39:47;100302.50;;;22.30;100.00
71907;BME280;59781;52.090;5.030;2023-09-18T11:42:16;100313.50;;;23.10;100.00
71907;BME280;59781;52.090;5.030;2023-09-18T11:44:44;100296.31;;;23.40;100.00
71907;BME280;59781;52.090;5.030;2023-09-18T11:47:16;100300.88;;;23.71;100.00
71907;BME280;59781;52.090;5.030;2023-09-18T11:50:02;100305.00;;;22.69;100.00
71907;BME280;59781;52.090;5.030;2023-09-18T11:52:30;100301.06;;;22.92;100.00
71907;BME280;59781;52.090;5.030;2023-09-18T11:55:00;100296.66;;;22.22;100.00
71907;BME280;59781;52.090;5.030;2023-09-18T11:57:27;100291.69;;;22.14;100.00
71907;BME280;59781;52.090;5.030;2023-09-18T11:59:54;100294.78;;;21.95;100.00
71907;BME280;59781;52.090;5.030;2023-09-18T12:02:27;100288.50;;;23.01;100.00
71907;BME280;59781;52.090;5.030;2023-09-18T12:04:56;100276.47;;;24.46;100.00
71907;BME280;59781;52.090;5.030;2023-09-18T12:07:22;100284.25;;;23.41;100.00
71907;BME280;59781;52.090;5.030;2023-09-18T12:09:50;100280.22;;;22.96;100.00
71907;BME280;59781;52.090;5.030;2023-09-18T12:12:16;100281.59;;;23.61;100.00
71907;BME280;59781;52.090;5.030;2023-09-18T12:14:43;100278.75;;;23.36;100.00
71907;BME280;59781;52.090;5.030;2023-09-18T12:17:14;100285.81;;;24.20;100.00
71907;BME280;59781;52.090;5.030;2023-09-18T12:19:55;100270.69;;;24.53;100.00
71907;BME280;59781;52.090;5.030;2023-09-18T12:22:25;100275.66;;;24.41;100.00
71907;BME280;59781;52.090;5.030;2023-09-18T12:24:52;100279.53;;;23.26;100.00
71907;BME280;59781;52.090;5.030;2023-09-18T12:27:19;100274.25;;;24.13;100.00
71907;BME280;59781;52.090;5.030;2023-09-18T12:29:44;100265.75;;;24.50;100.00
71907;BME280;59781;52.090;5.030;2023-09-18T12:32:13;100270.94;;;24.72;100.00
71907;BME280;59781;52.090;5.030;2023-09-18T12:34:40;100270.66;;;24.02;100.00
71907;BME280;59781;52.090;5.030;2023-09-18T12:37:08;100280.16;;;23.54;100.00
71907;BME280;59781;52.090;5.030;2023-09-18T12:39:37;100281.00;;;23.54;100.00
71907;BME280;59781;52.090;5.030;2023-09-18T12:42:04;100267.53;;;23.53;100.00
71907;BME280;59781;52.090;5.030;2023-09-18T12:44:30;100267.16;;;23.24;100.00
71907;BME280;59781;52.090;5.030;2023-09-18T12:46:57;100252.78;;;24.15;100.00
71907;BME280;59781;52.090;5.030;2023-09-18T12:49:23;100264.59;;;24.05;100.00
71907;BME280;59781;52.090;5.030;2023-09-18T12:52:01;100254.16;;;24.12;100.00
71907;BME280;59781;52.090;5.030;2023-09-18T12:54:45;100259.38;;;23.93;100.00
71907;BME280;59781;52.090;5.030;2023-09-18T12:57:15;100241.22;;;24.18;100.00